West Pittsburg, Pennsylvania
Current Conditions -  °F | °C
As of 8:35 PM on Sunday 23 Nov 2014 (Local Time) from KBTP Reporting Station
Scattered Clouds Scattered Clouds  
Wind Chill: 54°   Ceiling: Unl
Heat Index: 54°   Visibility: 10mi
Dew Point: 36°   Wind: 9mph
Humidity: 51%   Direction: 120°ESE
Pressure: 29.72"   Gusts: NA
Location:  40.93°N, 80.36°W
Report Text: KBTP 240135Z AUTO 12008KT 10SM SCT100 12/02 A2972 RMK AO1
Loading
Personal Weather Stations






























Interactive Weather Map New forecast layout! Learn more

10-Day Weather Forecast

Advertisements
Track Severe Weather on mobile